createdAt,value
2019-02-08T00:00:00.490Z,99640.19
2019-02-08T00:02:31.964Z,99640.19
2019-02-08T00:05:03.795Z,99644.97
2019-02-08T00:07:35.430Z,99659.16
2019-02-08T00:10:08.023Z,99662.72
2019-02-08T00:12:39.682Z,99661.31
2019-02-08T00:15:12.388Z,99661.31
2019-02-08T00:17:44.218Z,99667.66
2019-02-08T00:20:16.231Z,99672.38
2019-02-08T00:22:47.989Z,99678.23
2019-02-08T00:25:19.907Z,99693.84
2019-02-08T00:27:53.093Z,99693.84
2019-02-08T00:30:25.206Z,99697.04
2019-02-08T00:32:57.050Z,99697.35
2019-02-08T00:35:29.202Z,99697.35
2019-02-08T00:38:00.907Z,99698.20
2019-02-08T00:40:32.530Z,99704.72
2019-02-08T00:43:05.469Z,99702.78
2019-02-08T00:45:36.902Z,99710.36
2019-02-08T00:48:08.780Z,99710.36
2019-02-08T00:50:40.427Z,99708.55
2019-02-08T00:53:13.096Z,99708.55
2019-02-08T00:55:44.922Z,99712.84
2019-02-08T00:58:16.655Z,99707.94
2019-02-08T01:00:48.372Z,99707.94
2019-02-08T01:03:20.976Z,99713.21
2019-02-08T01:05:52.218Z,99713.21
2019-02-08T01:08:26.024Z,99719.28
2019-02-08T01:10:57.299Z,99721.68
2019-02-08T01:13:28.613Z,99733.58
2019-02-08T01:16:00.098Z,99732.88
2019-02-08T01:18:31.420Z,99732.88
2019-02-08T01:21:02.763Z,99731.30
2019-02-08T01:23:41.065Z,99735.19
2019-02-08T01:26:07.892Z,99736.58
2019-02-08T01:28:39.736Z,99744.52
2019-02-08T01:31:11.698Z,99747.24
2019-02-08T01:33:43.115Z,99747.24
2019-02-08T01:36:15.926Z,99761.89
2019-02-08T01:38:47.429Z,99761.39
2019-02-08T01:41:18.786Z,99761.39
2019-02-08T01:43:51.246Z,99765.01
2019-02-08T01:46:22.662Z,99764.60
2019-02-08T01:48:54.027Z,99764.60
2019-02-08T01:51:25.410Z,99752.32
2019-02-08T01:53:59.089Z,99746.55
2019-02-08T01:56:30.488Z,99755.63
2019-02-08T01:59:01.848Z,99759.63
2019-02-08T02:01:33.622Z,99759.63
2019-02-08T02:04:05.229Z,99758.77
2019-02-08T02:06:36.598Z,99759.56
2019-02-08T02:09:09.850Z,99757.23
2019-02-08T02:11:41.751Z,99765.50
2019-02-08T02:14:13.892Z,99766.31
2019-02-08T02:16:45.566Z,99766.31
2019-02-08T02:19:17.184Z,99761.97
2019-02-08T02:21:48.515Z,99764.70
2019-02-08T02:24:20.312Z,99764.70
2019-02-08T02:26:51.620Z,99766.03
2019-02-08T02:29:24.901Z,99770.39
2019-02-08T02:31:56.430Z,99771.70
2019-02-08T02:34:28.128Z,99774.53
2019-02-08T02:36:59.470Z,99777.45
2019-02-08T02:39:31.001Z,99789.52
2019-02-08T02:42:02.385Z,99794.91
2019-02-08T02:44:34.102Z,99796.88
2019-02-08T02:47:05.388Z,99810.02
2019-02-08T02:49:37.306Z,99810.02
2019-02-08T02:52:08.471Z,99814.19
2019-02-08T02:54:41.190Z,99815.08
2019-02-08T02:57:12.613Z,99814.13
2019-02-08T02:59:44.059Z,99820.39
2019-02-08T03:02:15.437Z,99822.68
2019-02-08T03:04:46.862Z,99822.68
2019-02-08T03:07:18.558Z,99828.61
2019-02-08T03:09:51.790Z,99828.13
2019-02-08T03:12:23.646Z,99832.25
2019-02-08T03:14:56.123Z,99826.42
2019-02-08T03:17:27.802Z,99832.79
2019-02-08T03:19:58.907Z,99834.15
2019-02-08T03:22:30.188Z,99830.37
2019-02-08T03:25:01.306Z,99832.45
2019-02-08T03:27:33.744Z,99832.45
2019-02-08T03:30:07.045Z,99840.25
2019-02-08T03:32:38.301Z,99840.25
2019-02-08T03:35:12.460Z,99849.10
2019-02-08T03:37:43.780Z,99843.63
2019-02-08T03:40:18.522Z,99841.43
2019-02-08T03:42:49.769Z,99843.98
2019-02-08T03:45:21.974Z,99849.28
2019-02-08T03:47:53.130Z,99856.52
2019-02-08T03:50:25.261Z,99856.52
2019-02-08T03:52:56.768Z,99850.27
2019-02-08T03:55:28.449Z,99842.00
2019-02-08T03:57:59.817Z,99842.00
2019-02-08T04:00:34.890Z,99851.98
2019-02-08T04:03:06.389Z,99864.97
2019-02-08T04:05:38.200Z,99862.53
2019-02-08T04:08:09.548Z,99862.53
2019-02-08T04:10:41.244Z,99874.31
2019-02-08T04:13:12.649Z,99881.86
2019-02-08T04:15:44.660Z,99887.78
2019-02-08T04:18:15.916Z,99889.19
2019-02-08T04:20:47.298Z,99889.19
2019-02-08T04:23:18.908Z,99891.66
2019-02-08T04:25:50.805Z,99896.07
2019-02-08T04:28:22.541Z,99901.13
2019-02-08T04:30:53.858Z,99901.13
2019-02-08T04:33:25.362Z,99901.86
2019-02-08T04:35:57.047Z,99903.30
2019-02-08T04:38:28.646Z,99903.30
2019-02-08T04:41:00.126Z,99909.36
2019-02-08T04:43:31.421Z,99909.36
2019-02-08T04:46:02.957Z,99910.39
2019-02-08T04:48:34.112Z,99912.81
2019-02-08T04:51:05.655Z,99913.98
2019-02-08T04:53:37.378Z,99913.98
2019-02-08T04:56:08.797Z,99920.47
2019-02-08T04:58:40.352Z,99920.47
2019-02-08T05:01:11.712Z,99926.36
2019-02-08T05:03:43.004Z,99929.94
2019-02-08T05:06:14.190Z,99936.23
2019-02-08T05:08:45.352Z,99936.23
2019-02-08T05:11:16.679Z,99938.36
2019-02-08T05:13:48.206Z,99929.86
2019-02-08T05:16:24.314Z,99931.78
2019-02-08T05:18:55.621Z,99925.04
2019-02-08T05:21:27.081Z,99925.04
2019-02-08T05:23:59.543Z,99921.64
2019-02-08T05:26:31.029Z,99921.64
2019-02-08T05:29:02.462Z,99917.24
2019-02-08T05:31:33.866Z,99921.20
2019-02-08T05:34:05.339Z,99912.96
2019-02-08T05:36:37.136Z,99912.96
2019-02-08T05:39:11.367Z,99922.58
2019-02-08T05:41:42.705Z,99913.08
2019-02-08T05:44:14.337Z,99910.50
2019-02-08T05:46:45.637Z,99910.58
2019-02-08T05:49:16.899Z,99909.33
2019-02-08T05:51:48.605Z,99909.33
2019-02-08T05:54:19.921Z,99901.70
2019-02-08T05:56:51.237Z,99901.70
2019-02-08T05:59:22.426Z,99895.09
2019-02-08T06:01:53.831Z,99887.42
2019-02-08T06:04:25.415Z,99887.42
2019-02-08T06:06:56.915Z,99886.61
2019-02-08T06:09:28.650Z,99886.61
2019-02-08T06:12:00.482Z,99890.30
2019-02-08T06:14:32.786Z,99879.80
2019-02-08T06:17:05.131Z,99870.28
2019-02-08T06:19:36.798Z,99869.19
2019-02-08T06:22:08.837Z,99865.18
2019-02-08T06:24:40.057Z,99865.18
2019-02-08T06:27:11.540Z,99862.54
2019-02-08T06:29:42.761Z,99862.54
2019-02-08T06:32:14.110Z,99854.85
2019-02-08T06:34:45.488Z,99854.28
2019-02-08T06:37:16.802Z,99854.28
2019-02-08T06:39:49.307Z,99836.14
2019-02-08T06:42:20.662Z,99834.17
2019-02-08T06:44:52.171Z,99829.82
2019-02-08T06:47:23.624Z,99829.82
2019-02-08T06:49:54.967Z,99826.22
2019-02-08T06:52:27.483Z,99826.22
2019-02-08T06:54:58.852Z,99816.70
2019-02-08T06:57:41.644Z,99816.70
2019-02-08T07:00:37.982Z,99812.06
2019-02-08T07:03:33.720Z,99818.47
2019-02-08T07:06:38.835Z,99795.27
2019-02-08T07:09:34.149Z,99791.17
2019-02-08T07:12:36.741Z,99791.17
2019-02-08T07:15:23.088Z,99782.78
2019-02-08T07:18:01.660Z,99782.78
2019-02-08T07:20:51.477Z,99780.14
2019-02-08T07:23:33.875Z,99776.47
2019-02-08T07:26:23.607Z,99767.23
2019-02-08T07:29:16.503Z,99767.23
2019-02-08T07:32:05.919Z,99765.55
2019-02-08T07:34:47.521Z,99756.53
2019-02-08T07:37:36.021Z,99752.44
2019-02-08T07:40:41.316Z,99751.78
2019-02-08T07:43:32.564Z,99751.78
2019-02-08T07:46:31.316Z,99740.13
2019-02-08T07:49:22.254Z,99740.13
2019-02-08T07:52:15.991Z,99737.83
2019-02-08T07:55:04.963Z,99739.99
2019-02-08T07:57:54.840Z,99722.36
2019-02-08T08:00:41.395Z,99725.38
2019-02-08T08:03:25.487Z,99722.05
2019-02-08T08:06:32.983Z,99715.95
2019-02-08T08:09:19.073Z,99715.95
2019-02-08T08:12:08.359Z,99704.77
2019-02-08T08:15:02.829Z,99704.77
2019-02-08T08:17:48.096Z,99690.02
2019-02-08T08:20:48.538Z,99678.66
2019-02-08T08:23:40.062Z,99678.66
2019-02-08T08:26:28.504Z,99683.89
2019-02-08T08:29:37.229Z,99663.45
2019-02-08T08:32:31.519Z,99661.33
2019-02-08T08:35:47.603Z,99661.33
2019-02-08T08:38:57.462Z,99651.72
2019-02-08T08:42:04.220Z,99651.72
2019-02-08T08:45:20.414Z,99655.77
2019-02-08T08:48:14.922Z,99649.16
2019-02-08T08:51:24.329Z,99645.52
2019-02-08T08:54:39.439Z,99645.52
2019-02-08T08:57:45.464Z,99636.13
2019-02-08T09:01:15.470Z,99629.16
2019-02-08T09:04:15.667Z,99630.85
2019-02-08T09:07:32.402Z,99616.05
2019-02-08T09:10:27.817Z,99616.05
2019-02-08T09:13:55.142Z,99618.06
2019-02-08T09:17:16.033Z,99618.06
2019-02-08T09:20:49.329Z,99618.75
2019-02-08T09:24:01.137Z,99615.67
2019-02-08T09:27:16.895Z,99611.61
2019-02-08T09:30:39.488Z,99611.45
2019-02-08T09:33:36.625Z,99611.45
2019-02-08T09:36:37.061Z,99608.60
2019-02-08T09:39:50.198Z,99603.52
2019-02-08T09:43:12.850Z,99609.12
2019-02-08T09:46:22.163Z,99609.12
2019-02-08T09:50:01.646Z,99609.03
2019-02-08T09:53:07.266Z,99603.80
2019-02-08T09:56:40.712Z,99603.80
2019-02-08T10:00:05.446Z,99609.38
2019-02-08T10:03:51.675Z,99599.14
2019-02-08T10:06:47.159Z,99602.17
2019-02-08T10:09:55.603Z,99602.17
2019-02-08T10:13:08.938Z,99592.39
2019-02-08T10:16:36.191Z,99592.39
2019-02-08T10:19:49.443Z,99591.37
2019-02-08T10:23:00.297Z,99587.10
2019-02-08T10:26:33.298Z,99574.92
2019-02-08T10:29:56.342Z,99574.92
2019-02-08T10:32:54.043Z,99576.39
2019-02-08T10:36:13.661Z,99572.18
2019-02-08T10:39:27.840Z,99563.55
2019-02-08T10:42:53.754Z,99568.06
2019-02-08T10:46:26.507Z,99567.98
2019-02-08T10:49:40.601Z,99567.98
2019-02-08T10:52:49.140Z,99563.67
2019-02-08T10:56:14.830Z,99561.10
2019-02-08T10:59:52.132Z,99561.44
2019-02-08T11:03:18.973Z,99557.44
2019-02-08T11:06:40.087Z,99557.44
2019-02-08T11:09:46.536Z,99562.88
2019-02-08T11:13:09.393Z,99555.35
2019-02-08T11:16:18.333Z,99555.73
2019-02-08T11:19:18.074Z,99557.86
2019-02-08T11:21:51.318Z,99555.75
2019-02-08T11:24:24.735Z,99551.83
2019-02-08T11:27:00.699Z,99566.84
2019-02-08T11:29:32.472Z,99566.84
2019-02-08T11:32:05.223Z,99562.97
2019-02-08T11:34:36.880Z,99566.89
2019-02-08T11:37:08.719Z,99573.52
2019-02-08T11:39:40.710Z,99572.92
2019-02-08T11:42:12.573Z,99576.38
2019-02-08T11:44:44.602Z,99579.48
2019-02-08T11:47:17.723Z,99584.70
2019-02-08T11:49:49.614Z,99584.71
2019-02-08T11:52:21.322Z,99584.71
2019-02-08T11:54:53.186Z,99585.17
2019-02-08T11:57:26.013Z,99586.27
2019-02-08T11:59:58.089Z,99589.67
2019-02-08T12:02:29.613Z,99589.67
2019-02-08T12:05:01.201Z,99586.80
2019-02-08T12:07:33.485Z,99586.80
2019-02-08T12:10:07.415Z,99593.35
2019-02-08T12:12:40.680Z,99590.59
2019-02-08T12:15:13.566Z,99591.59
2019-02-08T12:17:44.839Z,99591.59
2019-02-08T12:20:16.475Z,99586.80
2019-02-08T12:22:48.064Z,99590.52
2019-02-08T12:25:20.807Z,99590.52
2019-02-08T12:27:52.398Z,99599.01
2019-02-08T12:30:28.983Z,99602.16
2019-02-08T12:33:00.074Z,99597.63
2019-02-08T12:35:33.530Z,99599.01
2019-02-08T12:38:05.588Z,99599.01
2019-02-08T12:40:40.277Z,99601.01
2019-02-08T12:43:11.558Z,99608.38
2019-02-08T12:45:43.135Z,99615.31
2019-02-08T12:48:14.544Z,99612.53
2019-02-08T12:50:46.357Z,99612.53
2019-02-08T12:53:19.417Z,99619.31
2019-02-08T12:55:51.349Z,99619.60
2019-02-08T12:58:23.129Z,99619.60
2019-02-08T13:00:55.027Z,99623.19
2019-02-08T13:03:26.988Z,99623.19
2019-02-08T13:05:58.763Z,99630.98
2019-02-08T13:08:31.123Z,99630.98
2019-02-08T13:11:02.978Z,99639.02
2019-02-08T13:13:34.408Z,99639.02
2019-02-08T13:16:06.132Z,99644.69
2019-02-08T13:18:37.496Z,99644.97
2019-02-08T13:21:08.733Z,99644.33
2019-02-08T13:23:40.284Z,99644.33
2019-02-08T13:26:11.817Z,99658.02
2019-02-08T13:28:43.217Z,99656.20
2019-02-08T13:31:14.683Z,99674.17
2019-02-08T13:33:46.246Z,99668.10
2019-02-08T13:36:17.821Z,99676.33
2019-02-08T13:38:49.947Z,99676.33
2019-02-08T13:41:21.816Z,99675.20
2019-02-08T13:43:53.256Z,99684.95
2019-02-08T13:46:24.579Z,99690.02
2019-02-08T13:48:56.576Z,99690.02
2019-02-08T13:51:28.154Z,99693.95
2019-02-08T13:54:00.005Z,99693.95
2019-02-08T13:56:31.699Z,99689.75
2019-02-08T13:59:02.979Z,99694.22
2019-02-08T14:01:34.187Z,99700.42
2019-02-08T14:04:05.835Z,99710.78
2019-02-08T14:06:36.821Z,99713.77
2019-02-08T14:09:11.237Z,99713.77
2019-02-08T14:11:43.052Z,99718.00
2019-02-08T14:14:14.714Z,99717.91
2019-02-08T14:16:45.941Z,99717.91
2019-02-08T14:19:17.673Z,99717.80
2019-02-08T14:21:49.014Z,99717.80
2019-02-08T14:24:20.542Z,99727.58
2019-02-08T14:26:52.090Z,99736.62
2019-02-08T14:29:23.940Z,99735.72
2019-02-08T14:31:55.244Z,99735.72
2019-02-08T14:34:26.871Z,99741.91
2019-02-08T14:36:58.729Z,99741.91
2019-02-08T14:39:30.161Z,99751.83
2019-02-08T14:42:01.794Z,99751.83
2019-02-08T14:44:34.297Z,99763.48
2019-02-08T14:47:05.739Z,99763.48
2019-02-08T14:49:37.347Z,99768.23
2019-02-08T14:52:08.897Z,99768.23
2019-02-08T14:54:40.444Z,99768.86
2019-02-08T14:57:16.836Z,99778.38
2019-02-08T14:59:45.989Z,99778.38
2019-02-08T15:02:17.570Z,99789.25
2019-02-08T15:04:49.290Z,99787.10
2019-02-08T15:07:21.305Z,99787.10
2019-02-08T15:09:52.704Z,99791.36
2019-02-08T15:12:24.497Z,99791.36
2019-02-08T15:14:55.961Z,99789.94
2019-02-08T15:17:27.746Z,99796.85
2019-02-08T15:19:59.270Z,99796.05
2019-02-08T15:22:31.060Z,99800.94
2019-02-08T15:25:02.900Z,99804.94
2019-02-08T15:27:34.227Z,99804.94
2019-02-08T15:30:08.259Z,99810.48
2019-02-08T15:32:40.171Z,99810.48
2019-02-08T15:35:12.084Z,99810.20
2019-02-08T15:37:43.725Z,99812.45
2019-02-08T15:40:18.874Z,99812.45
2019-02-08T15:42:50.494Z,99817.75
2019-02-08T15:45:22.605Z,99822.59
2019-02-08T15:47:54.062Z,99824.41
2019-02-08T15:50:26.480Z,99817.05
2019-02-08T15:52:58.151Z,99817.05
2019-02-08T15:55:31.811Z,99820.88
2019-02-08T15:58:03.567Z,99820.88
2019-02-08T16:00:35.538Z,99825.00
2019-02-08T16:03:10.020Z,99831.63
2019-02-08T16:05:41.604Z,99832.55
2019-02-08T16:08:13.556Z,99832.55
2019-02-08T16:10:45.131Z,99835.31
2019-02-08T16:13:16.715Z,99835.69
2019-02-08T16:15:48.346Z,99841.63
2019-02-08T16:18:20.822Z,99843.22
2019-02-08T16:20:52.424Z,99846.50
2019-02-08T16:23:23.822Z,99846.80
2019-02-08T16:25:55.350Z,99847.12
2019-02-08T16:28:26.651Z,99849.64
2019-02-08T16:30:58.346Z,99848.26
2019-02-08T16:33:29.584Z,99848.26
2019-02-08T16:36:01.044Z,99855.61
2019-02-08T16:38:32.378Z,99855.61
2019-02-08T16:41:04.385Z,99864.55
2019-02-08T16:43:35.936Z,99864.55
2019-02-08T16:46:07.890Z,99855.61
2019-02-08T16:48:39.492Z,99858.16
2019-02-08T16:51:11.101Z,99858.16
2019-02-08T16:53:42.400Z,99854.63
2019-02-08T16:56:13.926Z,99849.29
2019-02-08T16:58:45.105Z,99849.34
2019-02-08T17:01:16.632Z,99851.33
2019-02-08T17:03:47.777Z,99851.33
2019-02-08T17:06:19.701Z,99853.66
2019-02-08T17:08:51.357Z,99853.66
2019-02-08T17:11:23.005Z,99846.13
2019-02-08T17:13:54.211Z,99856.16
2019-02-08T17:16:25.821Z,99863.45
2019-02-08T17:18:57.023Z,99860.72
2019-02-08T17:21:29.543Z,99861.72
2019-02-08T17:24:02.105Z,99864.58
2019-02-08T17:26:33.616Z,99866.29
2019-02-08T17:29:05.305Z,99866.29
2019-02-08T17:31:36.712Z,99866.66
2019-02-08T17:34:08.055Z,99865.80
2019-02-08T17:36:41.319Z,99861.80
2019-02-08T17:39:12.876Z,99866.44
2019-02-08T17:41:44.489Z,99870.77
2019-02-08T17:44:16.094Z,99870.77
2019-02-08T17:46:47.284Z,99871.08
2019-02-08T17:49:18.652Z,99871.08
2019-02-08T17:51:50.061Z,99866.44
2019-02-08T17:54:25.740Z,99866.44
2019-02-08T17:56:54.540Z,99871.93
2019-02-08T17:59:26.298Z,99873.64
2019-02-08T18:01:57.873Z,99873.64
2019-02-08T18:04:29.296Z,99870.41
2019-02-08T18:07:00.513Z,99871.77
2019-02-08T18:09:31.992Z,99871.77
2019-02-08T18:12:03.667Z,99881.69
2019-02-08T18:14:35.263Z,99881.69
2019-02-08T18:17:06.608Z,99881.25
2019-02-08T18:19:38.319Z,99879.37
2019-02-08T18:22:09.625Z,99874.00
2019-02-08T18:24:41.210Z,99874.00
2019-02-08T18:27:12.756Z,99874.83
2019-02-08T18:29:44.392Z,99870.92
2019-02-08T18:32:16.363Z,99873.18
2019-02-08T18:34:47.973Z,99873.18
2019-02-08T18:37:19.710Z,99868.50
2019-02-08T18:39:51.388Z,99869.45
2019-02-08T18:42:23.344Z,99862.08
2019-02-08T18:44:54.628Z,99874.06
2019-02-08T18:47:26.294Z,99874.06
2019-02-08T18:49:57.699Z,99870.11
2019-02-08T18:52:29.065Z,99875.20
2019-02-08T18:55:00.397Z,99878.20
2019-02-08T18:57:31.791Z,99878.20
2019-02-08T19:00:03.294Z,99876.08
2019-02-08T19:02:36.947Z,99877.38
2019-02-08T19:05:09.048Z,99878.61
2019-02-08T19:07:40.644Z,99880.42
2019-02-08T19:10:14.278Z,99883.69
2019-02-08T19:12:45.951Z,99883.69
2019-02-08T19:15:19.057Z,99878.23
2019-02-08T19:17:51.407Z,99872.06
2019-02-08T19:20:24.126Z,99872.06
2019-02-08T19:22:56.048Z,99882.55
2019-02-08T19:25:32.201Z,99877.61
2019-02-08T19:28:04.085Z,99872.92
2019-02-08T19:30:37.326Z,99872.92
2019-02-08T19:33:09.684Z,99872.59
2019-02-08T19:35:41.395Z,99872.59
2019-02-08T19:38:12.972Z,99875.54
2019-02-08T19:40:45.993Z,99866.38
2019-02-08T19:43:17.696Z,99866.38
2019-02-08T19:45:49.237Z,99878.50
2019-02-08T19:48:20.899Z,99876.06
2019-02-08T19:50:52.501Z,99872.83
2019-02-08T19:53:23.819Z,99872.83
2019-02-08T19:55:55.428Z,99874.50
2019-02-08T19:58:34.111Z,99872.61
2019-02-08T20:01:00.239Z,99872.61
2019-02-08T20:03:31.993Z,99872.13
2019-02-08T20:06:03.518Z,99864.72
2019-02-08T20:08:35.168Z,99868.00
2019-02-08T20:11:06.410Z,99867.60
2019-02-08T20:13:37.767Z,99867.34
2019-02-08T20:16:09.181Z,99864.67
2019-02-08T20:18:40.687Z,99866.77
2019-02-08T20:21:13.245Z,99864.02
2019-02-08T20:23:44.859Z,99868.68
2019-02-08T20:26:16.253Z,99857.98
2019-02-08T20:28:47.903Z,99857.98
2019-02-08T20:31:20.732Z,99850.14
2019-02-08T20:33:52.230Z,99850.14
2019-02-08T20:36:25.545Z,99850.29
2019-02-08T20:38:57.011Z,99849.28
2019-02-08T20:41:29.475Z,99848.87
2019-02-08T20:44:00.976Z,99845.86
2019-02-08T20:46:32.490Z,99846.15
2019-02-08T20:49:03.819Z,99843.83
2019-02-08T20:51:35.357Z,99843.83
2019-02-08T20:54:06.982Z,99836.44
2019-02-08T20:56:38.539Z,99837.08
2019-02-08T20:59:10.212Z,99837.08
2019-02-08T21:01:41.540Z,99836.16
2019-02-08T21:04:13.029Z,99828.83
2019-02-08T21:06:44.457Z,99828.83
2019-02-08T21:09:16.374Z,99836.80
2019-02-08T21:11:47.744Z,99836.80
2019-02-08T21:14:18.942Z,99833.45
2019-02-08T21:16:50.476Z,99829.69
2019-02-08T21:19:22.132Z,99829.69
2019-02-08T21:21:53.505Z,99831.80
2019-02-08T21:24:24.894Z,99838.20
2019-02-08T21:26:56.285Z,99840.27
2019-02-08T21:29:27.918Z,99833.31
2019-02-08T21:31:59.396Z,99833.31
2019-02-08T21:34:31.232Z,99835.39
2019-02-08T21:37:02.935Z,99832.95
2019-02-08T21:39:34.157Z,99830.79
2019-02-08T21:42:05.860Z,99825.02
2019-02-08T21:44:37.377Z,99821.64
2019-02-08T21:47:08.950Z,99819.54
2019-02-08T21:49:40.225Z,99819.54
2019-02-08T21:52:12.391Z,99813.00
2019-02-08T21:54:43.752Z,99806.76
2019-02-08T21:57:15.580Z,99806.76
2019-02-08T21:59:47.074Z,99815.11
2019-02-08T22:02:18.489Z,99815.11
2019-02-08T22:04:49.802Z,99814.36
2019-02-08T22:07:21.823Z,99823.63
2019-02-08T22:09:53.158Z,99815.23
2019-02-08T22:12:24.629Z,99826.55
2019-02-08T22:14:56.199Z,99829.69
2019-02-08T22:17:28.040Z,99829.69
2019-02-08T22:19:59.396Z,99818.82
2019-02-08T22:22:31.054Z,99827.45
2019-02-08T22:25:02.619Z,99825.30
2019-02-08T22:27:34.158Z,99818.44
2019-02-08T22:30:07.915Z,99817.91
2019-02-08T22:32:39.356Z,99816.78
2019-02-08T22:35:11.950Z,99816.78
2019-02-08T22:37:43.498Z,99814.61
2019-02-08T22:40:17.512Z,99806.38
2019-02-08T22:42:49.773Z,99810.13
2019-02-08T22:45:26.595Z,99806.94
2019-02-08T22:47:58.554Z,99800.34
2019-02-08T22:50:30.634Z,99800.34
2019-02-08T22:53:02.227Z,99797.23
2019-02-08T22:55:34.239Z,99803.27
2019-02-08T22:58:05.937Z,99804.95
2019-02-08T23:01:24.847Z,99804.95
2019-02-08T23:03:57.442Z,99808.00
2019-02-08T23:06:29.295Z,99805.98
2019-02-08T23:09:00.666Z,99798.47
2019-02-08T23:11:34.205Z,99798.47
2019-02-08T23:14:05.915Z,99809.25
2019-02-08T23:16:37.573Z,99807.74
2019-02-08T23:19:08.927Z,99807.74
2019-02-08T23:21:40.584Z,99801.94
2019-02-08T23:24:11.732Z,99801.80
2019-02-08T23:26:43.206Z,99798.11
2019-02-08T23:29:14.641Z,99799.64
2019-02-08T23:31:46.472Z,99809.85
2019-02-08T23:34:18.017Z,99818.36
2019-02-08T23:36:49.609Z,99808.80
2019-02-08T23:39:22.160Z,99808.80
2019-02-08T23:41:53.753Z,99809.09
2019-02-08T23:44:25.344Z,99810.66
2019-02-08T23:46:57.055Z,99813.71
2019-02-08T23:49:29.219Z,99810.68
2019-02-08T23:52:01.360Z,99810.68
2019-02-08T23:54:32.885Z,99805.55
2019-02-08T23:57:04.194Z,99805.55
2019-02-08T23:59:38.174Z,99820.23
